Latest Weather Observations for Kanagulk

IDV60801

Issued at 7:03 am EST Monday 24 April 2017 (issued every 30 minutes, with the page automatically refreshed every 10 minutes)

About weather observations | Map of weather stations | Latest weather observations for VIC | Other Formats
Station Details ID: 079097 Name: KANAGULK Lat: -37.12 Lon: 141.80 Height: 188.8 m
Data from the previous 72 hours. | See also: Recent months at Kanagulk
Date/Time
EST
Temp
°C
App
Temp
°C
Dew
Point
°C
Rel
Hum
%
Delta-T
°C
Wind Press
QNH
hPa
Press
MSL
hPa
Rain since
9am
mm
Dir  Spd
km/h
Gust
km/h
Spd
kts
Gust
kts
24/07:00am 11.6 11.0 11.6 100 0.0 ESE 6 9 3 5 1019.8 1019.6 0.0
24/06:30am 11.1 11.5 11.1 100 0.0 CALM 0 0 0 0 1020.0 1019.8 0.0
24/06:00am 10.3 9.1 10.3 100 0.0 SSE 7 9 4 5 1019.9 1019.7 0.0
24/05:30am 10.2 9.2 10.2 100 0.0 SE 6 9 3 5 1020.0 1019.8 0.0
24/05:00am 10.3 9.1 10.3 100 0.0 SSE 7 7 4 4 1020.1 1019.9 0.0
24/04:30am 11.0 10.2 11.0 100 0.0 SSE 6 7 3 4 1020.3 1020.1 0.0
24/04:00am 10.6 9.5 10.6 100 0.0 S 7 9 4 5 1020.3 1020.1 0.0
24/03:30am 11.1 11.5 11.1 100 0.0 CALM 0 0 0 0 1020.7 1020.5 0.0
24/03:00am 11.5 12.0 11.5 100 0.0 CALM 0 6 0 3 1020.9 1020.7 0.0
24/02:30am 11.8 11.2 11.8 100 0.0 SSE 6 7 3 4 1021.1 1020.9 0.0
24/02:00am 11.5 11.2 11.5 100 0.0 S 4 6 2 3 1021.4 1021.2 0.0
24/01:30am 11.6 11.0 11.6 100 0.0 S 6 7 3 4 1021.4 1021.2 0.0
24/01:00am 11.4 10.7 11.4 100 0.0 SSE 6 7 3 4 1021.6 1021.4 0.0
24/12:30am 11.8 11.2 11.8 100 0.0 SSE 6 7 3 4 1021.8 1021.6 0.0
24/12:00am 12.2 11.6 12.2 100 0.0 S 7 11 4 6 1021.9 1021.7 0.0
 
Date/Time
EST
Temp
°C
App
Temp
°C
Dew
Point
°C
Rel
Hum
%
Delta-T
°C
Wind Press
QNH
hPa
Press
MSL
hPa
Rain since
9am
mm
Dir  Spd
km/h
Gust
km/h
Spd
kts
Gust
kts
23/11:30pm 12.6 11.7 12.6 100 0.0 S 9 11 5 6 1022.1 1022.0 0.0
23/11:00pm 12.6 11.7 12.6 100 0.0 SSE 9 13 5 7 1022.1 1022.0 0.0
23/10:30pm 12.8 11.6 12.8 100 0.0 SSE 11 13 6 7 1022.3 1022.2 0.0
23/10:00pm 13.2 11.7 13.0 99 0.1 SSE 13 15 7 8 1022.6 1022.5 0.0
23/09:30pm 13.4 11.9 13.2 99 0.1 SSE 13 15 7 8 1022.6 1022.5 0.0
23/09:00pm 13.7 12.3 13.5 99 0.1 SSE 13 17 7 9 1022.7 1022.6 0.0
23/08:30pm 14.2 12.6 14.0 99 0.1 SSE 15 20 8 11 1022.6 1022.5 0.0
23/08:00pm 14.5 12.2 14.0 97 0.3 SSE 19 28 10 15 1022.6 1022.5 0.0
23/07:30pm 14.8 12.3 14.0 95 0.5 SSE 20 28 11 15 1022.8 1022.7 0.0
23/07:00pm 15.3 12.8 14.0 92 0.7 SSE 20 30 11 16 1022.7 1022.6 0.0
23/06:30pm 16.0 14.1 14.2 89 1.0 SSE 17 22 9 12 1022.5 1022.4 0.0
23/06:00pm 16.5 14.5 14.0 85 1.4 SSE 17 24 9 13 1022.2 1022.1 0.0
23/05:30pm 17.5 15.0 14.0 80 2.0 SSE 20 28 11 15 1022.0 1021.8 0.0
23/05:00pm 18.4 16.0 13.9 75 2.6 S 19 24 10 13 1021.8 1021.6 0.0
23/04:30pm 20.7 18.6 13.6 64 4.1 SSE 17 24 9 13 1021.8 1021.6 0.0
23/04:00pm 21.0 18.0 11.9 56 5.1 SSE 19 22 10 12 1021.9 1021.7 0.0
23/03:30pm 21.2 19.0 12.1 56 5.2 SSE 15 22 8 12 1021.8 1021.6 0.0
23/03:00pm 21.5 19.2 10.6 50 6.0 SSE 13 20 7 11 1021.9 1021.7 0.0
23/02:30pm 21.5 20.0 11.8 54 5.5 SE 11 17 6 9 1022.1 1022.0 0.0
23/02:00pm 20.0 18.9 11.8 59 4.6 S 9 13 5 7 1022.3 1022.2 0.0
23/01:30pm 19.8 18.1 12.3 62 4.2 S 13 17 7 9 1022.6 1022.5 0.0
23/01:00pm 20.6 18.9 12.6 60 4.5 S 13 20 7 11 1023.0 1022.9 0.0
23/12:30pm 20.8 20.2 12.2 58 4.9 E 7 11 4 6 1023.5 1023.4 0.0
23/12:00pm 19.1 19.7 11.9 63 4.0 CALM 0 0 0 0 1023.9 1023.8 0.0
23/11:30am 18.7 19.4 13.3 71 3.1 SE 2 7 1 4 1024.4 1024.2 0.0
23/11:00am 19.0 18.7 13.2 69 3.3 SSE 7 13 4 7 1024.7 1024.5 0.0
23/10:30am 18.5 18.2 14.4 77 2.4 SE 9 13 5 7 1024.7 1024.5 0.0
23/10:00am 17.8 17.4 15.1 84 1.6 SSE 11 15 6 8 1024.8 1024.6 0.0
23/09:30am 16.8 16.0 15.2 90 0.9 SE 13 19 7 10 1025.0 1024.8 0.0
23/09:00am 15.8 14.8 15.6 99 0.1 SSE 15 20 8 11 1024.9 1024.7 0.4
23/08:30am 14.5 13.5 14.5 100 0.0 SSE 13 17 7 9 1024.9 1024.7 0.4
23/08:00am 13.6 13.4 13.6 100 0.0 SE 7 9 4 5 1024.6 1024.4 0.4
23/07:30am 12.5 12.0 12.5 100 0.0 SE 7 9 4 5 1024.1 1024.0 0.4
23/07:00am 12.3 10.9 12.3 100 0.0 SSE 11 13 6 7 1023.9 1023.8 0.4
23/06:30am 12.9 11.3 12.9 100 0.0 SSE 13 17 7 9 1023.6 1023.5 0.0
23/06:00am 12.9 11.3 12.9 100 0.0 SSE 13 19 7 10 1023.6 1023.5 0.0
23/05:30am 12.8 11.6 12.8 100 0.0 SSE 11 15 6 8 1023.6 1023.5 0.0
23/05:00am 13.0 11.5 13.0 100 0.0 SSE 13 15 7 8 1023.4 1023.3 0.0
23/04:30am 13.5 11.8 13.5 100 0.0 SSE 15 20 8 11 1023.3 1023.2 0.0
23/04:00am 13.1 12.4 13.1 100 0.0 SSE 9 13 5 7 1023.2 1023.1 0.0
23/03:30am 13.1 12.0 13.1 100 0.0 SSE 11 15 6 8 1023.3 1023.2 0.0
23/03:00am 13.4 12.4 13.4 100 0.0 SSE 11 13 6 7 1023.4 1023.3 0.0
23/02:30am 13.7 12.8 13.7 100 0.0 SSE 11 15 6 8 1023.6 1023.5 0.0
23/02:00am 14.0 13.1 13.8 99 0.1 SSE 11 15 6 8 1023.8 1023.7 0.0
23/01:30am 13.8 12.5 13.6 99 0.1 SSE 13 20 7 11 1023.9 1023.8 0.0
23/01:00am 14.0 12.8 14.0 100 0.0 SSE 13 20 7 11 1024.0 1023.9 0.0
23/12:30am 13.9 12.6 13.7 99 0.1 SSE 13 17 7 9 1024.3 1024.1 0.0
23/12:00am 14.1 12.9 13.9 99 0.1 SSE 13 19 7 10 1024.3 1024.1 0.0
 
Date/Time
EST
Temp
°C
App
Temp
°C
Dew
Point
°C
Rel
Hum
%
Delta-T
°C
Wind Press
QNH
hPa
Press
MSL
hPa
Rain since
9am
mm
Dir  Spd
km/h
Gust
km/h
Spd
kts
Gust
kts
22/11:30pm 13.8 12.5 13.6 99 0.1 SSE 13 17 7 9 1024.1 1024.0 0.0
22/11:00pm 14.1 12.5 13.9 99 0.1 SSE 15 20 8 11 1024.4 1024.2 0.0
22/10:30pm 14.6 12.8 14.4 99 0.1 SSE 17 26 9 14 1024.3 1024.1 0.0
22/10:00pm 14.6 12.8 14.4 99 0.1 SSE 17 24 9 13 1024.1 1024.0 0.0
22/09:30pm 15.1 13.5 14.9 99 0.1 SSE 17 22 9 12 1024.3 1024.1 0.0
22/09:00pm 15.2 13.6 15.0 99 0.1 SSE 17 24 9 13 1024.0 1023.9 0.0
22/08:30pm 15.2 14.0 15.0 99 0.1 SSE 15 19 8 10 1023.8 1023.7 0.0
22/08:00pm 14.7 13.7 14.5 99 0.1 SSE 13 17 7 9 1023.6 1023.5 0.0
22/07:30pm 15.2 14.1 14.4 95 0.5 S 13 19 7 10 1023.5 1023.4 0.0
22/07:00pm 15.6 14.7 14.8 95 0.5 SSE 13 15 7 8 1023.2 1023.1 0.0
22/06:30pm 16.1 15.5 14.6 91 0.9 S 11 17 6 9 1023.0 1022.9 0.0
22/06:00pm 17.1 15.7 14.6 85 1.4 S 15 20 8 11 1022.8 1022.7 0.0
22/05:30pm 18.1 16.0 14.8 81 1.9 S 19 24 10 13 1022.5 1022.4 0.0
22/05:00pm 18.9 17.0 14.2 74 2.7 S 17 22 9 12 1022.3 1022.2 0.0
22/04:30pm 19.2 16.9 14.0 72 3.0 SSE 19 24 10 13 1022.2 1022.1 0.0
22/04:00pm 21.8 21.7 13.2 58 5.0 SW 6 11 3 6 1022.2 1022.1 0.0
22/03:30pm 20.5 19.5 13.5 64 4.0 SSW 11 15 6 8 1022.3 1022.2 0.0
22/03:00pm 21.3 21.3 14.2 64 4.2 SSW 7 17 4 9 1022.2 1022.1 0.0
22/02:30pm 19.7 18.8 13.6 68 3.5 SW 11 19 6 10 1022.3 1022.2 0.0
22/02:00pm 19.3 18.0 13.7 70 3.2 S 13 17 7 9 1022.4 1022.3 0.0
22/01:30pm 21.1 20.7 13.0 60 4.7 SW 7 15 4 8 1022.5 1022.4 0.0
22/01:00pm 20.6 20.7 14.0 66 3.8 WSW 6 13 3 7 1022.8 1022.7 0.0
22/12:30pm 20.4 20.6 14.7 70 3.4 S 7 17 4 9 1023.1 1023.0 0.0
22/12:00pm 19.9 19.9 15.3 75 2.7 SSW 9 15 5 8 1023.4 1023.3 0.0
22/11:30am 17.8 17.9 14.5 81 1.9 SW 7 13 4 7 1023.8 1023.7 0.0
22/11:00am 18.1 19.8 16.1 88 1.2 WSW 2 9 1 5 1024.0 1023.9 0.0
22/10:30am 16.8 17.9 15.5 92 0.8 SW 4 9 2 5 1024.3 1024.1 0.0
22/10:00am 16.7 18.5 16.5 99 0.1 W 2 7 1 4 1024.4 1024.2 0.0
22/09:30am 15.5 16.6 15.5 100 0.0 WNW 4 11 2 6 1024.4 1024.2 0.0
22/09:00am 15.2 15.8 15.2 100 0.0 SW 6 11 3 6 1024.3 1024.1 0.4
22/08:30am 15.1 16.0 15.1 100 0.0 W 4 7 2 4 1024.0 1023.9 0.4
22/08:00am 15.0 16.6 15.0 100 0.0 CALM 0 0 0 0 1023.6 1023.5 0.4
22/07:30am 14.7 16.2 14.7 100 0.0 CALM 0 0 0 0 1023.3 1023.2 0.4
22/07:00am 14.7 16.2 14.7 100 0.0 CALM 0 0 0 0 1022.9 1022.8 0.4
22/06:30am 14.5 15.9 14.5 100 0.0 CALM 0 0 0 0 1022.6 1022.5 0.4
22/06:00am 14.8 16.4 14.8 100 0.0 CALM 0 0 0 0 1022.4 1022.3 0.4
22/05:30am 15.1 16.8 15.1 100 0.0 CALM 0 0 0 0 1022.3 1022.2 0.4
22/05:00am 15.1 16.8 15.1 100 0.0 CALM 0 0 0 0 1022.0 1021.8 0.4
22/04:30am 15.2 16.9 15.2 100 0.0 CALM 0 0 0 0 1021.8 1021.6 0.4
22/04:00am 15.3 17.0 15.3 100 0.0 CALM 0 0 0 0 1021.7 1021.5 0.4
22/03:30am 15.3 17.0 15.3 100 0.0 CALM 0 0 0 0 1021.7 1021.5 0.4
22/03:00am 15.3 16.7 15.3 100 0.0 N 2 6 1 3 1021.8 1021.6 0.4
22/02:30am 15.4 17.2 15.4 100 0.0 CALM 0 0 0 0 1022.1 1022.0 0.4
22/02:00am 15.4 16.0 15.4 100 0.0 NW 6 9 3 5 1022.1 1022.0 0.2
22/01:30am 15.6 17.1 15.6 100 0.0 NW 2 6 1 3 1022.1 1022.0 0.2
22/01:00am 15.9 17.9 15.9 100 0.0 CALM 0 0 0 0 1022.0 1021.8 0.0
22/12:30am 16.0 18.0 16.0 100 0.0 CALM 0 0 0 0 1021.9 1021.7 0.0
22/12:00am 16.1 18.1 15.9 99 0.1 CALM 0 4 0 2 1022.0 1021.8 0.0
 
Date/Time
EST
Temp
°C
App
Temp
°C
Dew
Point
°C
Rel
Hum
%
Delta-T
°C
Wind Press
QNH
hPa
Press
MSL
hPa
Rain since
9am
mm
Dir  Spd
km/h
Gust
km/h
Spd
kts
Gust
kts
21/11:30pm 16.4 18.1 16.2 99 0.1 NW 2 7 1 4 1021.8 1021.6 0.0
21/11:00pm 16.4 18.5 16.2 99 0.1 CALM 0 0 0 0 1021.9 1021.7 0.0
21/10:30pm 16.4 18.5 16.2 99 0.1 CALM 0 0 0 0 1021.8 1021.6 0.0
21/10:00pm 16.5 18.2 16.3 99 0.1 WNW 2 9 1 5 1021.9 1021.7 0.0
21/09:30pm 16.6 18.0 16.4 99 0.1 W 4 9 2 5 1021.8 1021.6 0.0
21/09:00pm 16.6 18.8 16.4 99 0.1 CALM 0 0 0 0 1021.6 1021.4 0.0
21/08:30pm 16.7 18.1 16.5 99 0.1 W 4 11 2 6 1021.4 1021.2 0.0
21/08:00pm 16.7 18.9 16.4 98 0.2 CALM 0 0 0 0 1021.1 1020.9 0.0
21/07:30pm 17.1 18.6 16.6 97 0.3 WNW 4 9 2 5 1021.0 1020.8 0.0
21/07:00pm 17.2 18.4 16.9 98 0.2 WNW 6 11 3 6 1020.8 1020.6 0.0
21/06:30pm 17.4 18.4 16.8 96 0.4 WNW 7 13 4 7 1020.5 1020.3 0.0
21/06:00pm 17.6 18.5 16.5 93 0.7 WNW 7 13 4 7 1020.2 1020.0 0.0
21/05:30pm 17.8 18.5 16.1 90 1.0 WNW 7 11 4 6 1020.0 1019.8 0.0
21/05:00pm 18.2 19.1 16.5 90 1.0 W 7 15 4 8 1019.7 1019.5 0.0
21/04:30pm 18.6 19.2 16.8 89 1.1 WNW 9 17 5 9 1019.7 1019.5 0.0
21/04:00pm 18.5 18.3 16.7 89 1.1 WNW 13 20 7 11 1019.6 1019.4 0.0
21/03:30pm 18.5 19.1 16.7 89 1.1 WNW 9 17 5 9 1019.5 1019.3 0.0
21/03:00pm 18.6 18.8 16.8 89 1.1 WNW 11 17 6 9 1019.5 1019.3 0.0
21/02:30pm 18.4 19.0 16.9 91 0.9 WNW 9 15 5 8 1019.4 1019.2 0.0
21/02:00pm 18.5 18.9 17.2 92 0.8 NW 11 20 6 11 1019.5 1019.3 0.0
21/01:30pm 18.0 18.6 17.8 99 0.1 NW 11 20 6 11 1019.7 1019.5 0.0
21/01:00pm 17.6 18.4 17.4 99 0.1 NW 9 15 5 8 1019.9 1019.7 0.0
21/12:30pm 17.3 18.0 17.1 99 0.1 NW 9 15 5 8 1020.0 1019.8 0.0
21/12:00pm 17.0 17.2 16.8 99 0.1 NW 11 17 6 9 1020.3 1020.1 0.0
21/11:30am 16.5 16.6 16.5 100 0.0 NW 11 17 6 9 1020.6 1020.4 0.0
21/11:00am 16.6 17.0 16.4 99 0.1 WNW 9 13 5 7 1020.7 1020.5 0.0
21/10:30am 16.6 17.7 16.6 100 0.0 WNW 6 11 3 6 1020.7 1020.5 0.0
21/10:00am 16.6 17.7 16.6 100 0.0 WNW 6 7 3 4 1020.4 1020.2 0.0
21/09:30am 15.7 17.2 15.7 100 0.0 NW 2 7 1 4 1020.5 1020.3 0.0
21/09:00am 15.7 17.2 15.7 100 0.0 W 2 7 1 4 1020.3 1020.1 29.4
21/08:30am 15.5 17.3 15.5 100 0.0 CALM 0 0 0 0 1020.4 1020.2 29.4
21/08:00am 15.3 17.0 15.3 100 0.0 CALM 0 0 0 0 1020.4 1020.2 29.4
21/07:30am 15.2 15.8 15.2 100 0.0 WSW 6 15 3 8 1020.2 1020.0 29.4

Other Formats:

Comma delimited format used in spreadsheet applications
http://www.bom.gov.au/fwo/IDV60801/IDV60801.95827.axf

JavaScript Object Notation format (JSON) in row-major order
http://www.bom.gov.au/fwo/IDV60801/IDV60801.95827.json